Time;durP1;ratioP1;P1;durP2;ratioP2;P2;SDS_P1;SDS_P2;PMS_P1;PMS_P2;Temp;Humidity;BMP_temperature;BMP_pressure;BME280_temperature;BME280_humidity;BME280_pressure;Samples;Min_cycle;Max_cycle;Signal;HPM_P1;HPM_P2
2020/12/08 00:01:45;;;;;;;4.43;2.83;;;;;;;3.49;80.84;94248.69;4195349;28;20644;-77
2020/12/08 00:03:46;;;;;;;4.10;2.75;;;;;;;3.47;80.53;94245.41;4180605;28;20126;-78
2020/12/08 00:05:48;;;;;;;5.07;2.83;;;;;;;3.30;80.99;94244.19;4178839;28;20348;-78
2020/12/08 00:07:50;;;;;;;4.57;2.80;;;;;;;3.30;81.65;94248.56;4184601;28;20387;-78
2020/12/08 00:09:51;;;;;;;4.25;2.40;;;;;;;3.39;81.77;94253.78;4169463;28;20061;-78
2020/12/08 00:11:52;;;;;;;4.78;2.70;;;;;;;3.50;80.81;94250.31;4189751;28;20079;-76
2020/12/08 00:13:53;;;;;;;4.25;2.47;;;;;;;3.53;80.50;94252.66;4191842;28;20116;-77
2020/12/08 00:15:55;;;;;;;3.67;2.35;;;;;;;3.66;80.53;94261.06;4190666;28;20088;-80
2020/12/08 00:17:56;;;;;;;3.65;1.90;;;;;;;3.80;80.11;94261.66;4190694;28;20391;-78
2020/12/08 00:19:58;;;;;;;4.13;2.22;;;;;;;3.86;79.62;94266.34;4194648;28;20155;-77
2020/12/08 00:21:59;;;;;;;3.92;2.15;;;;;;;3.93;79.60;94266.63;4177211;28;20067;-79
2020/12/08 00:24:00;;;;;;;3.58;2.22;;;;;;;4.04;79.53;94264.81;4183320;28;20452;-78
2020/12/08 00:26:02;;;;;;;3.85;2.22;;;;;;;4.13;79.11;94263.19;4189279;28;20059;-79
2020/12/08 00:28:03;;;;;;;3.92;2.60;;;;;;;4.23;79.45;94266.63;4186426;28;20060;-79
2020/12/08 00:30:10;;;;;;;5.22;2.50;;;;;;;4.33;78.42;94269.25;4193148;28;20057;-78
2020/12/08 00:32:11;;;;;;;5.43;2.75;;;;;;;4.42;78.39;94271.06;4189559;28;20118;-78
2020/12/08 00:34:13;;;;;;;4.70;2.53;;;;;;;4.49;77.66;94273.94;4175683;28;20041;-78
2020/12/08 00:36:14;;;;;;;4.95;2.70;;;;;;;4.51;77.51;94272.03;4193664;28;20400;-77
2020/12/08 00:38:15;;;;;;;4.95;3.00;;;;;;;4.56;77.53;94269.03;4191353;28;20052;-78
2020/12/08 00:40:16;;;;;;;4.45;2.90;;;;;;;4.60;78.01;94265.22;4175156;28;20144;-77
2020/12/08 00:42:17;;;;;;;4.30;2.90;;;;;;;4.61;77.77;94266.88;4194853;28;20080;-78
2020/12/08 00:44:19;;;;;;;4.45;3.20;;;;;;;4.64;77.44;94266.59;4192302;28;20053;-77
2020/12/08 00:46:20;;;;;;;4.45;2.97;;;;;;;4.69;77.92;94274.81;4194463;28;20056;-78
2020/12/08 00:48:21;;;;;;;4.68;3.30;;;;;;;4.72;77.58;94270.16;4159364;28;20079;-77
2020/12/08 00:50:22;;;;;;;5.35;3.28;;;;;;;4.78;77.71;94268.00;4194513;28;20486;-76
2020/12/08 00:52:24;;;;;;;5.55;4.00;;;;;;;4.83;77.16;94268.41;4163194;28;20076;-79
2020/12/08 00:54:39;;;;;;;3.92;2.65;;;;;;;4.85;77.88;94272.50;4180273;28;20514;-77
2020/12/08 00:56:40;;;;;;;4.03;2.90;;;;;;;4.91;77.39;94271.97;4192772;28;20051;-78
2020/12/08 00:58:41;;;;;;;4.30;3.08;;;;;;;4.91;76.90;94284.13;4159279;28;20057;-78
2020/12/08 01:00:43;;;;;;;3.72;2.80;;;;;;;4.87;76.00;94278.38;4193154;28;20048;-77
2020/12/08 01:02:44;;;;;;;5.30;3.45;;;;;;;4.71;76.31;94288.47;4194136;28;20045;-76
2020/12/08 01:04:45;;;;;;;4.20;3.15;;;;;;;4.55;77.15;94288.16;4191922;28;20067;-78
2020/12/08 01:06:47;;;;;;;5.15;3.40;;;;;;;4.48;77.72;94291.28;4193398;28;20455;-78
2020/12/08 01:08:48;;;;;;;6.65;4.60;;;;;;;4.37;78.42;94293.97;4193550;28;20147;-78
2020/12/08 01:10:50;;;;;;;7.95;4.90;;;;;;;4.11;78.70;94291.03;4169898;28;20444;-78
2020/12/08 01:12:51;;;;;;;7.55;4.80;;;;;;;4.00;79.72;94298.84;4177856;28;20049;-77
2020/12/08 01:14:52;;;;;;;9.40;5.50;;;;;;;3.95;79.98;94296.66;4192945;28;20219;-78
2020/12/08 01:16:57;;;;;;;11.32;6.53;;;;;;;3.99;79.39;94292.03;4199860;28;20060;-78
2020/12/08 01:18:58;;;;;;;8.05;5.90;;;;;;;4.07;79.42;94300.00;4200994;28;20418;-77
2020/12/08 01:21:00;;;;;;;8.20;5.57;;;;;;;4.10;79.85;94289.34;4179506;28;20049;-77
2020/12/08 01:23:02;;;;;;;7.93;5.90;;;;;;;4.24;79.69;94290.81;4183027;28;20052;-78
2020/12/08 01:25:03;;;;;;;6.65;4.93;;;;;;;4.36;79.21;94288.91;4202677;28;20133;-78
2020/12/08 01:27:04;;;;;;;6.43;4.68;;;;;;;4.48;79.64;94293.06;4195456;28;20068;-80
2020/12/08 01:29:06;;;;;;;7.93;6.30;;;;;;;4.57;78.92;94281.06;4199912;28;20055;-77
2020/12/08 01:31:07;;;;;;;8.63;6.15;;;;;;;4.57;78.29;94284.47;4193614;28;20098;-77
2020/12/08 01:33:08;;;;;;;8.40;6.47;;;;;;;4.51;77.68;94283.22;4192071;28;20459;-76
2020/12/08 01:35:09;;;;;;;9.43;6.95;;;;;;;4.42;78.22;94286.63;4176961;28;20136;-77
2020/12/08 01:37:10;;;;;;;10.25;6.50;;;;;;;4.41;78.60;94284.16;4191961;28;20106;-78
2020/12/08 01:39:12;;;;;;;11.43;6.63;;;;;;;4.38;78.61;94280.06;4193134;28;20052;-79
2020/12/08 01:41:13;;;;;;;8.23;6.47;;;;;;;4.30;78.33;94291.09;4195266;28;20067;-78
2020/12/08 01:43:14;;;;;;;11.95;7.90;;;;;;;4.18;78.62;94286.13;4191990;28;20045;-78
2020/12/08 01:45:15;;;;;;;9.02;6.53;;;;;;;4.09;79.46;94285.97;4190241;28;20152;-77
2020/12/08 01:47:17;;;;;;;11.32;7.32;;;;;;;4.02;79.57;94282.25;4195412;28;20492;-75
2020/12/08 01:49:18;;;;;;;11.63;7.65;;;;;;;4.03;79.55;94283.88;4177292;28;20052;-77
2020/12/08 01:51:20;;;;;;;7.72;6.65;;;;;;;4.03;79.79;94291.66;4191054;28;20067;-77
2020/12/08 01:53:22;;;;;;;10.10;6.72;;;;;;;3.99;80.26;94292.03;4173445;28;20063;-78
2020/12/08 01:55:24;;;;;;;9.32;6.35;;;;;;;4.04;79.87;94287.28;4193869;28;20162;-77
2020/12/08 01:57:26;;;;;;;8.43;6.65;;;;;;;4.07;79.73;94289.63;4192284;28;20056;-78
2020/12/08 01:59:27;;;;;;;8.23;6.13;;;;;;;4.07;79.68;94282.66;4182377;28;20480;-76
2020/12/08 02:01:28;;;;;;;8.93;6.63;;;;;;;4.02;79.72;94290.03;4188181;28;20063;-78
2020/12/08 02:03:30;;;;;;;8.98;6.20;;;;;;;4.05;79.47;94288.94;4158987;28;20199;-78
2020/12/08 02:05:32;;;;;;;9.87;7.93;;;;;;;3.98;80.24;94293.81;4158464;28;20103;-77
2020/12/08 02:07:34;;;;;;;10.02;7.85;;;;;;;3.76;81.18;94281.00;4183976;28;20282;-78
2020/12/08 02:09:36;;;;;;;10.63;8.18;;;;;;;3.66;81.78;94286.16;4192911;28;20099;-77
2020/12/08 02:11:37;;;;;;;13.27;9.02;;;;;;;3.50;82.59;94278.81;4178643;28;20049;-77
2020/12/08 02:13:39;;;;;;;11.38;8.13;;;;;;;3.44;82.85;94276.72;4201457;28;20155;-76
2020/12/08 02:15:40;;;;;;;11.07;7.80;;;;;;;3.38;83.02;94280.66;4200755;28;20059;-78
2020/12/08 02:17:41;;;;;;;13.95;8.50;;;;;;;3.38;82.98;94283.25;4176475;28;20053;-77
2020/12/08 02:19:43;;;;;;;10.25;7.68;;;;;;;3.35;83.37;94277.47;4146440;28;20497;-76
2020/12/08 02:21:45;;;;;;;13.68;8.38;;;;;;;3.20;83.82;94282.13;4187540;28;20373;-77
2020/12/08 02:23:50;;;;;;;10.15;8.15;;;;;;;3.31;83.59;94287.25;4196796;28;20356;-78
2020/12/08 02:25:59;;;;;;;15.65;9.23;;;;;;;3.33;83.15;94284.53;4164244;28;20062;-78
2020/12/08 02:28:02;;;;;;;12.60;8.23;;;;;;;3.34;83.12;94283.63;4168316;28;20073;-78
2020/12/08 02:30:04;;;;;;;11.68;7.90;;;;;;;3.40;83.28;94285.69;4174025;28;20590;-78
2020/12/08 02:32:05;;;;;;;10.50;7.22;;;;;;;3.53;82.90;94290.66;4200595;28;20121;-79
2020/12/08 02:34:07;;;;;;;10.25;7.68;;;;;;;3.57;82.18;94285.13;4191713;28;20074;-77
2020/12/08 02:36:09;;;;;;;11.25;7.50;;;;;;;3.58;82.26;94285.94;4183953;28;20388;-76
2020/12/08 02:38:10;;;;;;;8.98;6.80;;;;;;;3.57;82.06;94287.72;4168188;28;20063;-78
2020/12/08 02:40:11;;;;;;;11.43;6.85;;;;;;;3.71;81.90;94289.16;4190520;28;20052;-78
2020/12/08 02:42:15;;;;;;;9.70;6.63;;;;;;;3.83;81.50;94284.72;4192499;28;20049;-68
2020/12/08 02:44:16;;;;;;;10.13;6.05;;;;;;;3.94;80.58;94286.44;4189880;28;20044;-68
2020/12/08 02:46:18;;;;;;;11.10;7.43;;;;;;;4.06;80.34;94278.41;4191242;28;20086;-68
2020/12/08 02:48:19;;;;;;;14.38;7.95;;;;;;;4.16;79.85;94272.47;4174645;28;20488;-68
2020/12/08 02:50:33;;;;;;;11.27;8.02;;;;;;;4.25;80.11;94276.88;4174934;28;20052;-69
2020/12/08 02:52:34;;;;;;;11.43;8.05;;;;;;;4.28;79.77;94276.59;4191065;28;20462;-68
2020/12/08 02:54:35;;;;;;;13.27;9.23;;;;;;;4.27;78.94;94280.16;4190343;28;20140;-70
2020/12/08 02:56:39;;;;;;;11.38;7.75;;;;;;;4.28;79.05;94279.19;4191955;28;20060;-69
2020/12/08 02:58:40;;;;;;;11.05;7.70;;;;;;;4.17;78.89;94277.50;4188512;28;20558;-67
2020/12/08 03:00:41;;;;;;;11.00;7.78;;;;;;;4.12;79.22;94276.28;4187281;28;20048;-69
2020/12/08 03:02:43;;;;;;;13.90;8.48;;;;;;;4.20;79.31;94273.88;4185188;28;20456;-69
2020/12/08 03:04:44;;;;;;;14.73;8.95;;;;;;;4.19;79.29;94278.19;4190802;28;20053;-68
2020/12/08 03:06:45;;;;;;;12.98;8.48;;;;;;;4.20;79.02;94268.69;4202574;28;20158;-69
2020/12/08 03:08:47;;;;;;;12.68;8.50;;;;;;;4.08;79.37;94279.13;4190812;28;20155;-67
2020/12/08 03:10:49;;;;;;;13.93;9.10;;;;;;;4.10;79.89;94273.81;4173831;28;20049;-70
2020/12/08 03:12:51;;;;;;;20.02;10.95;;;;;;;4.07;79.58;94271.50;4188079;28;20048;-67
2020/12/08 03:14:52;;;;;;;13.30;8.13;;;;;;;3.98;80.37;94282.63;4172683;28;20083;-68
2020/12/08 03:16:56;;;;;;;14.90;9.88;;;;;;;3.76;80.48;94291.38;4190999;28;20484;-69
2020/12/08 03:18:58;;;;;;;16.27;10.27;;;;;;;3.61;81.02;94285.69;4191980;28;20052;-68
2020/12/08 03:20:59;;;;;;;15.70;10.05;;;;;;;3.67;81.50;94291.19;4190801;28;20147;-68
2020/12/08 03:23:00;;;;;;;15.15;9.98;;;;;;;3.74;81.41;94282.91;4189430;28;20049;-70
2020/12/08 03:25:05;;;;;;;17.67;10.95;;;;;;;3.83;81.08;94287.31;4175110;28;20316;-69
2020/12/08 03:27:06;;;;;;;17.52;10.40;;;;;;;3.79;80.88;94291.13;4163219;28;20099;-68
2020/12/08 03:29:07;;;;;;;15.43;10.20;;;;;;;3.81;81.07;94292.63;4158906;28;20497;-68
2020/12/08 03:31:09;;;;;;;17.52;10.07;;;;;;;3.74;80.97;94295.84;4176847;28;20053;-78
2020/12/08 03:33:10;;;;;;;14.80;9.93;;;;;;;3.57;81.33;94290.31;4178319;28;20392;-78
2020/12/08 03:35:11;;;;;;;16.45;9.25;;;;;;;3.56;81.84;94280.88;4177912;28;20222;-79
2020/12/08 03:37:12;;;;;;;13.60;9.05;;;;;;;3.68;82.13;94289.44;4182491;28;20048;-78
2020/12/08 03:39:16;;;;;;;17.23;10.30;;;;;;;3.75;82.03;94287.16;4177373;28;20057;-78
2020/12/08 03:41:21;;;;;;;15.05;9.13;;;;;;;3.79;81.41;94291.94;4176343;28;20049;-78
2020/12/08 03:43:22;;;;;;;13.90;10.05;;;;;;;3.84;81.46;94301.91;4170960;28;20060;-76
2020/12/08 03:45:24;;;;;;;17.80;12.07;;;;;;;3.66;81.39;94297.31;4172756;28;20067;-78
2020/12/08 03:47:25;;;;;;;20.75;12.00;;;;;;;3.58;81.70;94294.53;4176710;28;20079;-77
2020/12/08 03:49:26;;;;;;;19.63;12.27;;;;;;;3.54;82.36;94293.16;4175086;28;20052;-78
2020/12/08 03:51:28;;;;;;;16.08;10.77;;;;;;;3.38;82.58;94300.56;4177116;28;20147;-78
2020/12/08 03:53:29;;;;;;;19.75;12.93;;;;;;;3.33;83.35;94303.47;4180220;28;20479;-76
2020/12/08 03:55:30;;;;;;;20.38;12.93;;;;;;;3.16;83.64;94302.28;4172803;28;20049;-78
2020/12/08 03:57:33;;;;;;;17.73;12.77;;;;;;;2.98;84.26;94311.53;4180474;28;20126;-77
2020/12/08 03:59:34;;;;;;;21.08;14.18;;;;;;;2.86;85.18;94302.94;4179491;28;20114;-76
2020/12/08 04:01:35;;;;;;;19.92;14.68;;;;;;;2.92;85.13;94305.06;4180422;28;20053;-76
2020/12/08 04:03:36;;;;;;;22.15;16.17;;;;;;;2.98;84.92;94312.34;4180882;28;20049;-76
2020/12/08 04:05:39;;;;;;;22.25;15.85;;;;;;;3.10;84.16;94314.88;4179480;28;20044;-78
2020/12/08 04:07:40;;;;;;;22.48;14.73;;;;;;;3.09;84.50;94319.22;4177222;28;20044;-77
2020/12/08 04:09:41;;;;;;;16.90;11.05;;;;;;;3.20;82.96;94319.19;4177466;28;20114;-76
2020/12/08 04:11:42;;;;;;;18.90;13.05;;;;;;;3.01;83.78;94321.59;4171723;28;20046;-68
2020/12/08 04:13:46;;;;;;;18.42;12.50;;;;;;;3.02;84.39;94328.44;4167734;28;20049;-69
2020/12/08 04:15:47;;;;;;;20.95;14.02;;;;;;;2.91;84.39;94321.53;4165304;28;20053;-68
2020/12/08 04:17:49;;;;;;;21.52;13.27;;;;;;;2.90;85.14;94327.63;4203839;28;20417;-77
2020/12/08 04:19:50;;;;;;;20.13;13.68;;;;;;;3.03;84.70;94323.16;4163662;28;20055;-77
2020/12/08 04:21:51;;;;;;;19.15;13.98;;;;;;;3.03;84.62;94327.47;4178202;28;20268;-78
2020/12/08 04:24:02;;;;;;;17.27;12.93;;;;;;;3.12;84.77;94331.94;4183775;28;20045;-77
2020/12/08 04:26:09;;;;;;;15.95;11.07;;;;;;;3.23;83.73;94326.72;4181550;28;20606;-68
2020/12/08 04:28:10;;;;;;;15.18;11.10;;;;;;;3.39;83.40;94330.66;4166942;28;20057;-70
2020/12/08 04:30:12;;;;;;;18.27;11.82;;;;;;;3.56;82.92;94329.28;4176533;28;20207;-69
2020/12/08 04:32:13;;;;;;;16.98;11.05;;;;;;;3.74;82.53;94327.75;4179569;28;20052;-70
2020/12/08 04:34:14;;;;;;;18.33;13.15;;;;;;;3.88;82.09;94321.44;4173374;28;20140;-79
2020/12/08 04:36:17;;;;;;;19.85;13.75;;;;;;;4.01;81.35;94329.03;4179705;28;20127;-78
2020/12/08 04:38:18;;;;;;;16.55;12.13;;;;;;;4.05;80.36;94339.00;4172462;28;20116;-77
2020/12/08 04:40:20;;;;;;;20.77;14.10;;;;;;;3.93;80.01;94329.66;4181261;28;20053;-77
2020/12/08 04:42:21;;;;;;;23.08;15.70;;;;;;;3.75;80.87;94338.97;4177180;28;20059;-79
2020/12/08 04:44:23;;;;;;;13.50;9.27;;;;;;;3.62;80.84;94337.38;4174817;28;20136;-77
2020/12/08 04:46:26;;;;;;;20.20;13.63;;;;;;;3.48;81.42;94332.50;4177149;28;20061;-76
2020/12/08 04:48:27;;;;;;;27.77;19.63;;;;;;;3.20;82.66;94329.53;4177600;28;20240;-76
2020/12/08 04:50:29;;;;;;;31.70;21.25;;;;;;;3.20;82.66;94331.31;4177769;28;20141;-77
2020/12/08 04:52:40;;;;;;;26.20;18.77;;;;;;;3.34;82.74;94338.00;4177778;28;20052;-77
2020/12/08 04:54:42;;;;;;;27.73;18.27;;;;;;;3.53;82.82;94326.94;4176257;28;20079;-79
2020/12/08 04:56:44;;;;;;;24.83;16.45;;;;;;;3.72;81.82;94323.66;4178155;28;20053;-77
2020/12/08 04:58:45;;;;;;;21.75;16.20;;;;;;;3.87;81.66;94331.00;4174165;28;20075;-77
2020/12/08 05:00:47;;;;;;;26.85;17.48;;;;;;;4.05;81.06;94333.81;4175021;28;20417;-77
2020/12/08 05:02:52;;;;;;;22.80;15.77;;;;;;;4.18;80.40;94330.22;4173526;28;20048;-78
2020/12/08 05:04:57;;;;;;;24.00;17.27;;;;;;;4.26;79.30;94332.97;4177648;28;20044;-76
2020/12/08 05:07:06;;;;;;;24.80;15.50;;;;;;;4.30;78.74;94329.16;4175126;28;20134;-77
2020/12/08 05:09:10;;;;;;;23.42;15.80;;;;;;;4.33;79.29;94333.28;4177521;28;20053;-77
2020/12/08 05:11:11;;;;;;;25.00;16.20;;;;;;;4.37;78.93;94330.28;4175310;28;20056;-80
2020/12/08 05:13:26;;;;;;;21.88;15.50;;;;;;;4.43;78.66;94326.34;4164338;28;20048;-78
2020/12/08 05:15:27;;;;;;;23.33;15.70;;;;;;;4.36;77.77;94331.22;4166554;28;20053;-69
2020/12/08 05:17:29;;;;;;;22.73;15.85;;;;;;;4.35;78.24;94336.56;4170231;28;20496;-68
2020/12/08 05:19:31;;;;;;;22.85;15.82;;;;;;;4.36;78.67;94339.00;4175830;28;20057;-68
2020/12/08 05:21:33;;;;;;;20.40;14.95;;;;;;;4.41;78.51;94346.38;4175761;28;20049;-68
2020/12/08 05:23:41;;;;;;;24.27;14.85;;;;;;;4.47;78.03;94351.06;4175392;28;20045;-69
2020/12/08 05:25:45;;;;;;;20.15;14.23;;;;;;;4.50;77.52;94349.03;4174316;28;20053;-68
2020/12/08 05:27:50;;;;;;;19.65;14.65;;;;;;;4.56;77.34;94352.06;4175089;28;20522;-68
2020/12/08 05:29:51;;;;;;;20.33;13.90;;;;;;;4.56;77.77;94352.91;4173704;28;20067;-69
2020/12/08 05:31:53;;;;;;;21.17;13.50;;;;;;;4.59;77.86;94359.59;4174454;28;20051;-68
2020/12/08 05:33:59;;;;;;;18.88;14.05;;;;;;;4.53;77.59;94355.72;4171421;28;20060;-69
2020/12/08 05:36:00;;;;;;;18.42;13.18;;;;;;;4.48;77.52;94356.13;4179558;28;20064;-68
2020/12/08 05:38:04;;;;;;;18.23;12.98;;;;;;;4.53;78.00;94352.31;4175275;28;20040;-69
2020/12/08 05:40:10;;;;;;;15.93;12.23;;;;;;;4.55;77.64;94359.03;4158984;28;20292;-69
2020/12/08 05:42:19;;;;;;;18.63;11.80;;;;;;;4.55;77.23;94353.03;4176922;28;20072;-68
2020/12/08 05:44:26;;;;;;;14.77;10.85;;;;;;;4.54;77.51;94354.78;4161212;28;20053;-70
2020/12/08 05:46:29;;;;;;;13.32;10.45;;;;;;;4.54;77.16;94351.34;4175842;28;20057;-68
2020/12/08 05:48:31;;;;;;;14.18;9.73;;;;;;;4.55;77.43;94350.41;4174347;28;20060;-68
2020/12/08 05:50:33;;;;;;;12.43;9.82;;;;;;;4.56;77.34;94354.66;4175994;28;20126;-68
2020/12/08 05:52:35;;;;;;;13.88;10.00;;;;;;;4.54;77.09;94359.13;4174634;28;20048;-68
2020/12/08 05:54:37;;;;;;;13.45;9.73;;;;;;;4.60;76.91;94356.03;4177945;28;20040;-69
2020/12/08 05:56:38;;;;;;;13.70;10.13;;;;;;;4.61;76.92;94353.31;4187239;28;20053;-69
2020/12/08 05:58:39;;;;;;;16.30;11.13;;;;;;;4.69;76.81;94355.25;4174399;28;20057;-69
2020/12/08 06:00:40;;;;;;;18.15;10.60;;;;;;;4.73;76.68;94348.81;4175677;28;20048;-69
2020/12/08 06:02:42;;;;;;;16.25;11.32;;;;;;;4.74;76.79;94347.88;4172849;28;20068;-70
2020/12/08 06:04:43;;;;;;;15.85;11.85;;;;;;;4.77;76.70;94350.22;4172500;28;20056;-69
2020/12/08 06:06:48;;;;;;;16.52;11.50;;;;;;;4.77;76.58;94355.41;4164363;28;20048;-69
2020/12/08 06:08:50;;;;;;;20.92;14.27;;;;;;;4.76;76.59;94363.34;4176127;28;20049;-69
2020/12/08 06:10:55;;;;;;;21.15;14.00;;;;;;;4.77;76.33;94370.16;4173825;28;20209;-69
2020/12/08 06:13:00;;;;;;;22.83;13.32;;;;;;;4.79;76.40;94368.25;4172504;28;20052;-78
2020/12/08 06:15:17;;;;;;;31.15;18.35;;;;;;;4.79;76.20;94369.06;4175946;28;20061;-77
2020/12/08 06:17:18;;;;;;;29.08;16.60;;;;;;;4.84;76.25;94379.03;4176691;28;20049;-78
2020/12/08 06:19:19;;;;;;;28.48;15.85;;;;;;;4.88;76.33;94370.88;4176143;28;20161;-78
2020/12/08 06:21:28;;;;;;;27.50;15.80;;;;;;;4.90;75.99;94381.13;4181200;28;20064;-77
2020/12/08 06:23:30;;;;;;;22.13;13.80;;;;;;;4.91;75.51;94383.59;4179834;28;20136;-78
2020/12/08 06:25:33;;;;;;;33.20;19.45;;;;;;;4.90;75.70;94378.53;4181029;28;20106;-79
2020/12/08 06:27:34;;;;;;;28.40;16.95;;;;;;;4.92;76.44;94390.41;4164546;28;20421;-77
2020/12/08 06:29:35;;;;;;;19.58;13.57;;;;;;;4.89;76.17;94389.88;4158489;28;20072;-79
2020/12/08 06:31:54;;;;;;;27.77;16.05;;;;;;;4.87;76.16;94392.59;4153153;28;20488;-77
2020/12/08 06:33:56;;;;;;;29.35;19.00;;;;;;;4.85;76.51;94402.28;4155742;28;20177;-78
2020/12/08 06:35:59;;;;;;;20.52;16.67;;;;;;;4.86;76.07;94403.09;4158916;28;20053;-76
2020/12/08 06:38:01;;;;;;;20.37;15.63;;;;;;;4.88;76.36;94393.41;4151973;28;20058;-82
2020/12/08 06:40:13;;;;;;;19.48;14.80;;;;;;;4.76;76.11;94410.88;4158434;28;20287;-81
2020/12/08 06:42:15;;;;;;;22.45;15.13;;;;;;;4.65;76.51;94413.56;4158223;28;20049;-78
2020/12/08 06:44:21;;;;;;;21.23;16.27;;;;;;;4.64;77.12;94407.53;4157331;28;20137;-80
2020/12/08 06:46:22;;;;;;;21.10;14.65;;;;;;;4.63;77.33;94411.09;4157990;28;20045;-78
2020/12/08 06:48:23;;;;;;;21.52;14.38;;;;;;;4.67;76.35;94404.69;4157752;28;20485;-77
2020/12/08 06:50:32;;;;;;;18.42;14.05;;;;;;;4.69;76.07;94420.94;4159081;28;20060;-78
2020/12/08 06:52:34;;;;;;;20.67;14.40;;;;;;;4.75;76.27;94413.56;4158513;28;20132;-78
2020/12/08 06:54:35;;;;;;;18.88;14.23;;;;;;;4.79;76.36;94408.00;4154086;28;20064;-82
2020/12/08 06:56:36;;;;;;;18.13;14.80;;;;;;;4.81;75.95;94421.66;4158824;28;20053;-79
2020/12/08 06:58:47;;;;;;;22.48;15.18;;;;;;;4.81;75.83;94428.63;4158637;28;20053;-79
2020/12/08 07:00:48;;;;;;;26.52;18.65;;;;;;;4.81;76.34;94426.03;4159240;28;20477;-69
2020/12/08 07:02:51;;;;;;;30.50;21.45;;;;;;;4.53;76.37;94428.38;4156794;28;20127;-69
2020/12/08 07:04:52;;;;;;;35.17;24.15;;;;;;;3.70;79.76;94424.84;4152848;28;20049;-70
2020/12/08 07:06:54;;;;;;;32.90;24.85;;;;;;;3.56;80.39;94425.94;4156619;28;20053;-70
2020/12/08 07:08:56;;;;;;;44.42;31.38;;;;;;;3.51;80.85;94438.44;4156888;28;20057;-69
2020/12/08 07:10:57;;;;;;;43.47;30.50;;;;;;;3.53;80.72;94425.34;4157945;28;20140;-69
2020/12/08 07:12:58;;;;;;;48.65;34.40;;;;;;;3.59;80.86;94422.28;4168522;28;20053;-70
2020/12/08 07:15:00;;;;;;;49.88;31.45;;;;;;;3.69;80.66;94436.94;4171500;28;20045;-70
2020/12/08 07:17:01;;;;;;;52.63;32.20;;;;;;;3.92;80.08;94438.66;4160278;28;20057;-69
2020/12/08 07:19:04;;;;;;;44.10;29.73;;;;;;;4.15;79.74;94436.75;4142197;28;20208;-68
2020/12/08 07:21:06;;;;;;;119.40;72.03;;;;;;;4.44;79.52;94436.94;4165880;28;20064;-69
2020/12/08 07:23:09;;;;;;;45.30;30.58;;;;;;;4.59;78.38;94438.22;4170688;28;20493;-70
2020/12/08 07:25:13;;;;;;;36.80;25.75;;;;;;;4.52;78.13;94434.53;4158758;28;20251;-71
2020/12/08 07:27:14;;;;;;;36.60;24.95;;;;;;;4.40;78.41;94444.13;4178038;28;20493;-70
2020/12/08 07:29:16;;;;;;;32.35;22.90;;;;;;;4.23;79.00;94442.13;4190499;28;20130;-70
2020/12/08 07:31:22;;;;;;;35.25;23.52;;;;;;;4.14;78.82;94442.88;4157324;28;20115;-69
2020/12/08 07:33:30;;;;;;;37.05;25.83;;;;;;;4.00;79.36;94447.44;4194810;28;20387;-69
2020/12/08 07:35:36;;;;;;;41.20;27.83;;;;;;;3.99;79.42;94448.38;4187357;28;20392;-71
2020/12/08 07:37:38;;;;;;;39.60;27.23;;;;;;;4.16;79.45;94449.59;4172818;28;20099;-70
2020/12/08 07:39:40;;;;;;;34.97;24.65;;;;;;;4.30;78.74;94445.84;4170985;28;20115;-70
2020/12/08 07:41:41;;;;;;;38.97;25.42;;;;;;;4.36;78.70;94455.72;4193064;28;20045;-70
2020/12/08 07:43:42;;;;;;;38.60;25.35;;;;;;;4.51;78.40;94451.03;4188933;28;20119;-71
2020/12/08 07:45:45;;;;;;;39.65;25.38;;;;;;;4.53;77.98;94443.13;4191291;28;20044;-69
2020/12/08 07:47:51;;;;;;;37.05;24.67;;;;;;;4.62;77.42;94450.13;4177707;28;20209;-69
2020/12/08 07:49:53;;;;;;;36.85;26.25;;;;;;;4.57;77.78;94447.09;4172987;28;20045;-69
2020/12/08 07:51:54;;;;;;;36.55;26.15;;;;;;;4.56;77.75;94451.47;4191450;28;20277;-69
2020/12/08 07:54:01;;;;;;;56.92;29.63;;;;;;;4.42;77.87;94450.00;4172758;28;20490;-68
2020/12/08 07:56:03;;;;;;;43.25;29.95;;;;;;;4.49;78.68;94456.31;4172581;28;20059;-70
2020/12/08 07:58:04;;;;;;;47.05;30.92;;;;;;;4.60;78.23;94452.03;4190680;28;20135;-70
2020/12/08 08:00:06;;;;;;;45.65;31.88;;;;;;;4.77;77.59;94448.00;4171759;28;20053;-71
2020/12/08 08:02:07;;;;;;;42.45;28.17;;;;;;;4.86;77.37;94450.66;4173155;28;20056;-71
2020/12/08 08:04:12;;;;;;;40.63;27.45;;;;;;;4.99;77.73;94447.00;4175162;28;20449;-72
2020/12/08 08:06:17;;;;;;;38.55;26.70;;;;;;;4.97;76.92;94451.50;4182034;28;20150;-71
2020/12/08 08:08:21;;;;;;;44.88;28.63;;;;;;;4.85;77.66;94453.38;4156844;28;20065;-70
2020/12/08 08:10:22;;;;;;;40.83;27.95;;;;;;;4.88;76.97;94459.13;4190809;28;20051;-69
2020/12/08 08:12:25;;;;;;;39.30;26.75;;;;;;;4.86;77.07;94463.63;4191891;28;20148;-69
2020/12/08 08:14:27;;;;;;;40.38;27.27;;;;;;;4.76;77.29;94462.75;4189607;28;20563;-71
2020/12/08 08:16:39;;;;;;;44.70;27.15;;;;;;;4.82;79.01;94467.44;4198328;28;20491;-69
2020/12/08 08:18:40;;;;;;;40.95;27.10;;;;;;;4.95;77.84;94472.41;4168955;28;20049;-70
2020/12/08 08:20:42;;;;;;;38.38;26.75;;;;;;;4.95;77.27;94480.22;4183424;28;20488;-69
2020/12/08 08:22:43;;;;;;;41.05;29.77;;;;;;;4.87;77.31;94480.84;4177674;28;20510;-69
2020/12/08 08:24:44;;;;;;;38.85;28.60;;;;;;;4.92;77.65;94470.88;4160442;28;20145;-70
2020/12/08 08:26:45;;;;;;;43.47;29.00;;;;;;;4.98;77.83;94472.16;4172338;28;20148;-71
2020/12/08 08:28:48;;;;;;;44.28;29.73;;;;;;;5.07;78.45;94475.72;4188118;28;20170;-69
2020/12/08 08:30:49;;;;;;;48.17;32.65;;;;;;;4.89;77.36;94478.94;4196956;28;20136;-71
2020/12/08 08:32:51;;;;;;;49.95;32.80;;;;;;;4.84;77.24;94481.13;4196655;28;20539;-69
2020/12/08 08:34:52;;;;;;;46.05;33.25;;;;;;;4.81;78.07;94491.72;4175114;28;20045;-68
2020/12/08 08:36:55;;;;;;;46.80;33.00;;;;;;;4.78;77.16;94488.59;4189467;28;20256;-69
2020/12/08 08:38:56;;;;;;;50.92;33.90;;;;;;;4.78;77.45;94486.00;4193373;28;20052;-71
2020/12/08 08:40:58;;;;;;;52.40;36.80;;;;;;;4.79;77.80;94487.63;4189492;28;20067;-70
2020/12/08 08:43:00;;;;;;;58.10;38.00;;;;;;;4.79;77.60;94493.63;4193103;28;20040;-71
2020/12/08 08:45:02;;;;;;;54.72;35.08;;;;;;;4.78;77.30;94491.19;4174323;28;20049;-70
2020/12/08 08:47:04;;;;;;;52.08;36.53;;;;;;;4.80;78.17;94495.28;4182438;28;20056;-71
2020/12/08 08:49:05;;;;;;;54.10;35.67;;;;;;;4.72;77.95;94489.91;4184585;28;20049;-68
2020/12/08 08:51:06;;;;;;;54.55;37.85;;;;;;;4.59;79.24;94497.09;4182749;28;20144;-69
2020/12/08 08:53:08;;;;;;;56.35;36.30;;;;;;;4.65;78.62;94491.41;4194547;28;20072;-69
2020/12/08 08:55:10;;;;;;;56.53;36.85;;;;;;;4.82;78.48;94490.81;4206992;28;20054;-81
2020/12/08 08:57:11;;;;;;;54.42;35.92;;;;;;;5.01;77.69;94486.63;4202168;28;20495;-79
2020/12/08 08:59:12;;;;;;;52.47;35.33;;;;;;;5.21;77.49;94483.16;4193543;28;20068;-70
2020/12/08 09:01:16;;;;;;;54.53;35.92;;;;;;;5.34;77.03;94488.13;4203214;28;20134;-69
2020/12/08 09:03:18;;;;;;;58.30;37.28;;;;;;;5.46;76.55;94481.03;4181685;28;20063;-69
2020/12/08 09:05:19;;;;;;;52.95;36.53;;;;;;;5.54;76.45;94484.63;4158532;28;20053;-70
2020/12/08 09:07:20;;;;;;;57.30;38.03;;;;;;;5.61;75.18;94484.09;4177943;28;20053;-71
2020/12/08 09:09:22;;;;;;;60.60;39.13;;;;;;;5.43;75.06;94476.13;4187910;28;20052;-70
2020/12/08 09:11:23;;;;;;;54.28;36.85;;;;;;;5.43;75.70;94473.53;4190069;28;20420;-71
2020/12/08 09:13:24;;;;;;;55.35;37.50;;;;;;;5.37;75.71;94476.66;4184881;28;20476;-82
2020/12/08 09:15:26;;;;;;;54.35;38.10;;;;;;;5.37;76.88;94476.66;4192677;28;20504;-81
2020/12/08 09:17:27;;;;;;;55.50;40.97;;;;;;;5.39;76.25;94479.94;4187650;28;20567;-83
2020/12/08 09:19:28;;;;;;;53.65;37.60;;;;;;;5.49;76.05;94476.41;4193680;28;20063;-70
2020/12/08 09:21:29;;;;;;;56.00;37.72;;;;;;;5.65;75.29;94475.06;4192180;28;20048;-71
2020/12/08 09:23:31;;;;;;;58.08;37.42;;;;;;;5.75;75.58;94475.91;4191851;28;20095;-70
2020/12/08 09:25:33;;;;;;;56.45;36.85;;;;;;;5.73;74.96;94467.41;4174405;28;20044;-69
2020/12/08 09:27:34;;;;;;;50.15;33.58;;;;;;;5.44;75.14;94462.16;4192670;28;20573;-69
2020/12/08 09:29:36;;;;;;;50.83;35.38;;;;;;;5.42;76.01;94464.91;4171045;28;20186;-70
2020/12/08 09:31:37;;;;;;;55.80;37.47;;;;;;;5.04;77.27;94465.63;4190969;28;20147;-70
2020/12/08 09:33:39;;;;;;;51.15;36.38;;;;;;;5.15;77.33;94460.31;4158360;28;20131;-72